Terminal Aerodrome Forecast
Issued by NWS

Home | Current Version | Previous Version | Text Only | Print | Product List | Glossary On
Versions: 1 2 3 4 5 6 7 8 9 10 11 12 13 14 15 16 17 18 19 20 21 22 23 24
000
FTUS41 KOKX 140200 AAB
TAFSWF
TAF AMD
KSWF 140230Z 1403/1506 22010KT P6SM SHRA BKN040 BKN100
      TEMPO 1403/1405 4SM TSRA BKN040CB
     FM140500 VRB04KT 3SM BR SCT010 BKN025 BKN060
     FM141500 23007KT 6SM BR SCT025 BKN050
     FM141800 23008KT P6SM SHRA BKN040
      TEMPO 1418/1421 4SM TSRA BKN040CB
     FM142100 22008KT P6SM SHRA BKN050 PROB30 1422/1504 TSRA
      BKN040CB=

USA.gov is the U.S. government's official web portal to all federal, state and local government web resources and services.